createdAt,value
2023-06-23T00:00:55.002Z,24.58
2023-06-23T00:01:54.937Z,24.57
2023-06-23T00:02:54.937Z,24.58
2023-06-23T00:03:54.915Z,24.57
2023-06-23T00:04:54.813Z,24.57
2023-06-23T00:05:54.861Z,24.57
2023-06-23T00:06:54.802Z,24.55
2023-06-23T00:07:54.809Z,24.55
2023-06-23T00:08:54.826Z,24.53
2023-06-23T00:09:54.779Z,24.55
2023-06-23T00:10:54.791Z,24.53
2023-06-23T00:11:54.762Z,24.52
2023-06-23T00:12:54.739Z,24.52
2023-06-23T00:13:54.742Z,24.52
2023-06-23T00:14:54.781Z,24.52
2023-06-23T00:15:54.717Z,24.52
2023-06-23T00:16:54.686Z,24.50
2023-06-23T00:17:54.736Z,24.49
2023-06-23T00:18:54.668Z,24.49
2023-06-23T00:19:54.657Z,24.49
2023-06-23T00:20:54.690Z,24.47
2023-06-23T00:21:54.648Z,24.46
2023-06-23T00:22:54.661Z,24.46
2023-06-23T00:23:54.633Z,24.46
2023-06-23T00:24:54.644Z,24.46
2023-06-23T00:25:54.613Z,24.46
2023-06-23T00:26:54.579Z,24.43
2023-06-23T00:27:54.595Z,24.45
2023-06-23T00:28:54.639Z,24.43
2023-06-23T00:29:54.564Z,24.42
2023-06-23T00:30:54.565Z,24.43
2023-06-23T00:31:54.631Z,24.43
2023-06-23T00:32:54.615Z,24.42
2023-06-23T00:33:54.523Z,24.42
2023-06-23T00:34:54.544Z,24.40
2023-06-23T00:35:54.500Z,24.39
2023-06-23T00:36:55.204Z,24.40
2023-06-23T00:37:54.461Z,24.40
2023-06-23T00:38:54.437Z,24.37
2023-06-23T00:39:54.452Z,24.39
2023-06-23T00:40:54.608Z,24.39
2023-06-23T00:41:54.434Z,24.35
2023-06-23T00:42:54.445Z,24.35
2023-06-23T00:43:55.061Z,24.32
2023-06-23T00:44:54.441Z,24.35
2023-06-23T00:45:54.397Z,24.35
2023-06-23T00:46:54.400Z,24.34
2023-06-23T00:47:54.424Z,24.34
2023-06-23T00:48:54.380Z,24.32
2023-06-23T00:49:54.322Z,24.32
2023-06-23T00:50:54.309Z,24.32
2023-06-23T00:51:54.309Z,24.31
2023-06-23T00:52:54.283Z,24.31
2023-06-23T00:53:54.282Z,24.30
2023-06-23T00:54:54.266Z,24.30
2023-06-23T00:55:54.259Z,24.30
2023-06-23T00:56:54.232Z,24.28
2023-06-23T00:57:54.254Z,24.28
2023-06-23T00:58:54.209Z,24.27
2023-06-23T00:59:54.227Z,24.27
2023-06-23T01:00:54.255Z,24.27
2023-06-23T01:01:54.196Z,24.27
2023-06-23T01:02:54.300Z,24.25
2023-06-23T01:03:54.277Z,24.25
2023-06-23T01:04:54.137Z,24.24
2023-06-23T01:05:54.160Z,24.24
2023-06-23T01:06:54.137Z,24.24
2023-06-23T01:07:54.132Z,24.24
2023-06-23T01:08:54.145Z,24.21
2023-06-23T01:09:54.113Z,24.22
2023-06-23T01:10:54.114Z,24.22
2023-06-23T01:11:55.180Z,24.22
2023-06-23T01:12:54.053Z,24.22
2023-06-23T01:13:54.068Z,24.21
2023-06-23T01:14:54.045Z,24.21
2023-06-23T01:15:54.049Z,24.20
2023-06-23T01:16:54.012Z,24.20
2023-06-23T01:17:54.070Z,24.20
2023-06-23T01:18:54.005Z,24.18
2023-06-23T01:19:54.021Z,24.16
2023-06-23T01:20:53.957Z,24.16
2023-06-23T01:21:53.986Z,24.16
2023-06-23T01:22:53.998Z,24.16
2023-06-23T01:23:53.963Z,24.16
2023-06-23T01:24:54.023Z,24.15
2023-06-23T01:25:53.929Z,24.15
2023-06-23T01:26:53.895Z,24.16
2023-06-23T01:27:53.930Z,24.15
2023-06-23T01:28:53.925Z,24.12
2023-06-23T01:29:53.902Z,24.12
2023-06-23T01:30:53.871Z,24.12
2023-06-23T01:31:53.942Z,24.12
2023-06-23T01:32:53.894Z,24.12
2023-06-23T01:33:53.853Z,24.12
2023-06-23T01:34:53.885Z,24.10
2023-06-23T01:35:53.827Z,24.10
2023-06-23T01:36:53.845Z,24.10
2023-06-23T01:37:53.799Z,24.09
2023-06-23T01:38:53.759Z,24.10
2023-06-23T01:39:53.778Z,24.09
2023-06-23T01:40:53.743Z,24.09
2023-06-23T01:41:53.752Z,24.08
2023-06-23T01:42:53.729Z,24.08
2023-06-23T01:43:53.735Z,24.08
2023-06-23T01:44:53.701Z,24.08
2023-06-23T01:45:53.727Z,24.05
2023-06-23T01:46:53.684Z,24.06
2023-06-23T01:47:53.750Z,24.06
2023-06-23T01:48:53.721Z,24.05
2023-06-23T01:49:53.661Z,24.05
2023-06-23T01:50:53.685Z,24.03
2023-06-23T01:51:53.654Z,24.02
2023-06-23T01:52:53.608Z,24.02
2023-06-23T01:53:53.625Z,24.02
2023-06-23T01:54:53.613Z,24.00
2023-06-23T01:55:53.598Z,24.00
2023-06-23T01:56:53.558Z,24.02
2023-06-23T01:57:53.579Z,24.00
2023-06-23T01:58:53.535Z,23.98
2023-06-23T01:59:53.557Z,24.00
2023-06-23T02:00:53.588Z,23.97
2023-06-23T02:01:53.645Z,23.98
2023-06-23T02:02:53.571Z,24.00
2023-06-23T02:03:53.745Z,23.98
2023-06-23T02:04:53.682Z,23.97
2023-06-23T02:05:53.512Z,23.95
2023-06-23T02:06:53.522Z,23.97
2023-06-23T02:07:53.461Z,23.95
2023-06-23T02:08:53.428Z,23.95
2023-06-23T02:09:53.449Z,23.97
2023-06-23T02:10:53.408Z,23.95
2023-06-23T02:11:53.425Z,23.94
2023-06-23T02:12:53.412Z,23.94
2023-06-23T02:13:53.394Z,23.93
2023-06-23T02:14:53.368Z,23.93
2023-06-23T02:15:53.399Z,23.93
2023-06-23T02:16:53.407Z,23.93
2023-06-23T02:17:53.386Z,23.91
2023-06-23T02:18:53.346Z,23.93
2023-06-23T02:19:53.330Z,23.93
2023-06-23T02:20:53.358Z,23.91
2023-06-23T02:21:53.320Z,23.91
2023-06-23T02:22:53.293Z,23.91
2023-06-23T02:23:53.303Z,23.90
2023-06-23T02:24:53.265Z,23.91
2023-06-23T02:25:53.316Z,23.90
2023-06-23T02:26:53.235Z,23.88
2023-06-23T02:27:53.248Z,23.90
2023-06-23T02:28:53.710Z,23.88
2023-06-23T02:29:53.236Z,23.91
2023-06-23T02:30:53.239Z,23.88
2023-06-23T02:31:53.230Z,23.88
2023-06-23T02:32:53.183Z,23.87
2023-06-23T02:33:53.195Z,23.87
2023-06-23T02:34:53.195Z,23.87
2023-06-23T02:35:53.164Z,23.85
2023-06-23T02:36:53.133Z,23.85
2023-06-23T02:37:53.143Z,23.85
2023-06-23T02:38:53.096Z,23.85
2023-06-23T02:39:53.121Z,23.84
2023-06-23T02:40:53.145Z,23.83
2023-06-23T02:41:53.132Z,23.85
2023-06-23T02:42:53.075Z,23.84
2023-06-23T02:43:53.080Z,23.83
2023-06-23T02:44:53.035Z,23.84
2023-06-23T02:45:53.100Z,23.84
2023-06-23T02:46:53.070Z,23.83
2023-06-23T02:47:53.054Z,23.83
2023-06-23T02:48:53.006Z,23.83
2023-06-23T02:49:53.004Z,23.80
2023-06-23T02:50:52.971Z,23.79
2023-06-23T02:51:52.979Z,23.80
2023-06-23T02:52:52.962Z,23.80
2023-06-23T02:53:52.956Z,23.80
2023-06-23T02:54:53.223Z,23.78
2023-06-23T02:55:53.040Z,23.79
2023-06-23T02:56:52.904Z,23.78
2023-06-23T02:57:52.932Z,23.78
2023-06-23T02:58:52.943Z,23.78
2023-06-23T02:59:52.886Z,23.78
2023-06-23T03:00:53.335Z,23.78
2023-06-23T03:01:52.879Z,23.75
2023-06-23T03:02:52.943Z,23.76
2023-06-23T03:03:52.856Z,23.78
2023-06-23T03:04:52.819Z,23.76
2023-06-23T03:05:52.834Z,23.75
2023-06-23T03:06:52.808Z,23.73
2023-06-23T03:07:52.832Z,23.75
2023-06-23T03:08:52.857Z,23.73
2023-06-23T03:09:52.794Z,23.73
2023-06-23T03:10:52.752Z,23.73
2023-06-23T03:11:52.773Z,23.73
2023-06-23T03:12:52.753Z,23.73
2023-06-23T03:13:52.751Z,23.72
2023-06-23T03:14:53.556Z,23.70
2023-06-23T03:15:52.726Z,23.70
2023-06-23T03:16:52.704Z,23.70
2023-06-23T03:17:53.429Z,23.70
2023-06-23T03:18:52.674Z,23.70
2023-06-23T03:19:52.690Z,23.69
2023-06-23T03:20:52.641Z,23.70
2023-06-23T03:21:52.652Z,23.68
2023-06-23T03:22:52.677Z,23.69
2023-06-23T03:23:52.646Z,23.69
2023-06-23T03:24:52.618Z,23.68
2023-06-23T03:25:52.612Z,23.68
2023-06-23T03:26:52.632Z,23.66
2023-06-23T03:27:52.579Z,23.66
2023-06-23T03:28:52.558Z,23.66
2023-06-23T03:29:52.606Z,23.66
2023-06-23T03:30:52.551Z,23.66
2023-06-23T03:31:52.555Z,23.65
2023-06-23T03:32:52.557Z,23.63
2023-06-23T03:33:52.513Z,23.65
2023-06-23T03:34:52.490Z,23.65
2023-06-23T03:35:52.502Z,23.63
2023-06-23T03:36:52.518Z,23.61
2023-06-23T03:37:52.480Z,23.61
2023-06-23T03:38:52.448Z,23.63
2023-06-23T03:39:52.460Z,23.61
2023-06-23T03:40:52.413Z,23.60
2023-06-23T03:41:52.446Z,23.61
2023-06-23T03:42:52.417Z,23.61
2023-06-23T03:43:52.406Z,23.60
2023-06-23T03:44:52.370Z,23.60
2023-06-23T03:45:52.396Z,23.57
2023-06-23T03:46:52.656Z,23.58
2023-06-23T03:47:52.379Z,23.58
2023-06-23T03:48:52.388Z,23.58
2023-06-23T03:49:52.338Z,23.57
2023-06-23T03:50:52.301Z,23.57
2023-06-23T03:51:52.309Z,23.57
2023-06-23T03:52:52.291Z,23.57
2023-06-23T03:53:52.307Z,23.55
2023-06-23T03:54:52.282Z,23.57
2023-06-23T03:55:52.276Z,23.57
2023-06-23T03:56:52.238Z,23.55
2023-06-23T03:57:52.245Z,23.54
2023-06-23T03:58:52.272Z,23.54
2023-06-23T03:59:52.282Z,23.54
2023-06-23T04:00:52.203Z,23.54
2023-06-23T04:01:52.221Z,23.54
2023-06-23T04:02:52.191Z,23.54
2023-06-23T04:03:52.232Z,23.54
2023-06-23T04:04:52.204Z,23.53
2023-06-23T04:05:52.168Z,23.54
2023-06-23T04:06:52.197Z,23.53
2023-06-23T04:07:52.128Z,23.53
2023-06-23T04:08:52.111Z,23.53
2023-06-23T04:09:52.130Z,23.53
2023-06-23T04:10:52.107Z,23.51
2023-06-23T04:11:52.068Z,23.51
2023-06-23T04:12:52.769Z,23.50
2023-06-23T04:13:52.036Z,23.50
2023-06-23T04:14:52.070Z,23.50
2023-06-23T04:15:52.073Z,23.51
2023-06-23T04:16:52.031Z,23.50
2023-06-23T04:17:51.996Z,23.50
2023-06-23T04:18:52.059Z,23.50
2023-06-23T04:19:51.969Z,23.50
2023-06-23T04:20:51.994Z,23.48
2023-06-23T04:21:52.020Z,23.50
2023-06-23T04:22:51.964Z,23.47
2023-06-23T04:23:51.929Z,23.47
2023-06-23T04:24:51.937Z,23.48
2023-06-23T04:25:51.904Z,23.47
2023-06-23T04:26:52.778Z,23.46
2023-06-23T04:27:51.894Z,23.46
2023-06-23T04:28:51.914Z,23.46
2023-06-23T04:29:51.880Z,23.47
2023-06-23T04:30:51.875Z,23.46
2023-06-23T04:31:51.899Z,23.46
2023-06-23T04:32:51.892Z,23.43
2023-06-23T04:33:51.878Z,23.47
2023-06-23T04:34:51.873Z,23.46
2023-06-23T04:35:51.846Z,23.42
2023-06-23T04:36:51.816Z,23.43
2023-06-23T04:37:51.774Z,23.42
2023-06-23T04:38:51.791Z,23.42
2023-06-23T04:39:51.798Z,23.42
2023-06-23T04:40:51.757Z,23.40
2023-06-23T04:41:51.752Z,23.42
2023-06-23T04:42:51.806Z,23.40
2023-06-23T04:43:51.717Z,23.40
2023-06-23T04:44:51.740Z,23.40
2023-06-23T04:45:51.775Z,23.40
2023-06-23T04:46:51.701Z,23.39
2023-06-23T04:47:51.702Z,23.40
2023-06-23T04:48:51.700Z,23.38
2023-06-23T04:49:51.634Z,23.39
2023-06-23T04:50:51.662Z,23.39
2023-06-23T04:51:53.198Z,23.39
2023-06-23T04:52:51.636Z,23.38
2023-06-23T04:53:51.605Z,23.38
2023-06-23T04:54:51.633Z,23.38
2023-06-23T04:55:51.631Z,23.38
2023-06-23T04:56:51.602Z,23.36
2023-06-23T04:57:51.542Z,23.36
2023-06-23T04:58:51.569Z,23.38
2023-06-23T04:59:51.594Z,23.35
2023-06-23T05:00:51.582Z,23.35
2023-06-23T05:01:51.512Z,23.35
2023-06-23T05:02:51.612Z,23.35
2023-06-23T05:03:51.608Z,23.33
2023-06-23T05:04:51.728Z,23.33
2023-06-23T05:05:51.493Z,23.33
2023-06-23T05:06:51.503Z,23.33
2023-06-23T05:07:51.459Z,23.33
2023-06-23T05:08:51.463Z,23.33
2023-06-23T05:09:51.456Z,23.32
2023-06-23T05:10:51.427Z,23.32
2023-06-23T05:11:51.411Z,23.32
2023-06-23T05:12:51.500Z,23.31
2023-06-23T05:13:51.443Z,23.31
2023-06-23T05:14:51.377Z,23.32
2023-06-23T05:15:51.356Z,23.31
2023-06-23T05:16:51.372Z,23.28
2023-06-23T05:17:51.484Z,23.27
2023-06-23T05:18:51.364Z,23.28
2023-06-23T05:19:51.306Z,23.28
2023-06-23T05:20:51.315Z,23.25
2023-06-23T05:21:51.355Z,23.27
2023-06-23T05:22:51.316Z,23.27
2023-06-23T05:23:53.438Z,23.25
2023-06-23T05:24:51.297Z,23.27
2023-06-23T05:25:51.259Z,23.27
2023-06-23T05:26:51.248Z,23.27
2023-06-23T05:27:51.268Z,23.25
2023-06-23T05:28:51.237Z,23.25
2023-06-23T05:29:51.202Z,23.25
2023-06-23T05:30:51.237Z,23.23
2023-06-23T05:31:51.212Z,23.25
2023-06-23T05:32:51.258Z,23.23
2023-06-23T05:33:51.172Z,23.23
2023-06-23T05:34:51.153Z,23.22
2023-06-23T05:35:51.192Z,23.22
2023-06-23T05:36:51.151Z,23.22
2023-06-23T05:37:51.120Z,23.22
2023-06-23T05:38:51.797Z,23.22
2023-06-23T05:39:51.072Z,23.20
2023-06-23T05:40:51.095Z,23.20
2023-06-23T05:41:51.128Z,23.20
2023-06-23T05:42:51.070Z,23.22
2023-06-23T05:43:51.056Z,23.19
2023-06-23T05:44:51.065Z,23.19
2023-06-23T05:45:51.039Z,23.19
2023-06-23T05:46:51.062Z,23.19
2023-06-23T05:47:51.106Z,23.19
2023-06-23T05:48:51.026Z,23.20
2023-06-23T05:49:50.962Z,23.17
2023-06-23T05:50:50.984Z,23.17
2023-06-23T05:51:50.957Z,23.17
2023-06-23T05:52:50.958Z,23.17
2023-06-23T05:53:50.928Z,23.17
2023-06-23T05:54:50.934Z,23.17
2023-06-23T05:55:50.925Z,23.16
2023-06-23T05:56:50.922Z,23.16
2023-06-23T05:57:50.873Z,23.16
2023-06-23T05:58:50.881Z,23.16
2023-06-23T05:59:50.926Z,23.15
2023-06-23T06:00:50.916Z,23.15
2023-06-23T06:01:50.836Z,23.13
2023-06-23T06:02:50.936Z,23.15
2023-06-23T06:03:50.903Z,23.13
2023-06-23T06:04:50.820Z,23.13
2023-06-23T06:05:50.793Z,23.12
2023-06-23T06:06:50.838Z,23.12
2023-06-23T06:07:50.794Z,23.12
2023-06-23T06:08:50.772Z,23.12
2023-06-23T06:09:50.775Z,23.12
2023-06-23T06:10:50.765Z,23.10
2023-06-23T06:11:50.732Z,23.12
2023-06-23T06:12:51.337Z,23.12
2023-06-23T06:13:50.758Z,23.10
2023-06-23T06:14:50.701Z,23.10
2023-06-23T06:15:50.689Z,23.12
2023-06-23T06:16:50.693Z,23.09
2023-06-23T06:17:50.674Z,23.09
2023-06-23T06:18:50.688Z,23.07
2023-06-23T06:19:50.697Z,23.07
2023-06-23T06:20:50.653Z,23.07
2023-06-23T06:21:50.617Z,23.07
2023-06-23T06:22:52.669Z,23.07
2023-06-23T06:23:50.619Z,23.09
2023-06-23T06:24:50.627Z,23.07
2023-06-23T06:25:50.596Z,23.05
2023-06-23T06:26:50.589Z,23.07
2023-06-23T06:27:50.552Z,23.05
2023-06-23T06:28:50.546Z,23.05
2023-06-23T06:29:50.585Z,23.05
2023-06-23T06:30:50.701Z,23.04
2023-06-23T06:31:50.496Z,23.04
2023-06-23T06:32:50.643Z,23.04
2023-06-23T06:33:50.539Z,23.04
2023-06-23T06:34:50.495Z,23.02
2023-06-23T06:35:50.443Z,23.02
2023-06-23T06:36:50.471Z,23.01
2023-06-23T06:37:50.462Z,23.02
2023-06-23T06:38:50.446Z,23.01
2023-06-23T06:39:50.416Z,23.01
2023-06-23T06:40:50.429Z,23.01
2023-06-23T06:41:50.389Z,23.00
2023-06-23T06:42:50.392Z,23.01
2023-06-23T06:43:50.394Z,23.00
2023-06-23T06:44:50.377Z,23.00
2023-06-23T06:45:50.376Z,22.97
2023-06-23T06:46:50.344Z,22.98
2023-06-23T06:47:50.419Z,22.98
2023-06-23T06:48:50.333Z,22.98
2023-06-23T06:49:50.331Z,22.98
2023-06-23T06:50:50.313Z,22.97
2023-06-23T06:51:50.269Z,22.97
2023-06-23T06:52:50.296Z,22.95
2023-06-23T06:53:50.302Z,22.97
2023-06-23T06:54:50.270Z,22.95
2023-06-23T06:55:50.231Z,22.94
2023-06-23T06:56:50.248Z,22.95
2023-06-23T06:57:50.207Z,22.95
2023-06-23T06:58:50.219Z,22.95
2023-06-23T06:59:50.237Z,22.95
2023-06-23T07:00:50.200Z,22.94
2023-06-23T07:01:50.271Z,22.94
2023-06-23T07:02:50.282Z,22.94
2023-06-23T07:03:50.216Z,22.92
2023-06-23T07:04:50.154Z,22.92
2023-06-23T07:05:50.135Z,22.92
2023-06-23T07:06:50.320Z,22.91
2023-06-23T07:07:50.118Z,22.91
2023-06-23T07:08:50.101Z,22.92
2023-06-23T07:09:50.135Z,22.91
2023-06-23T07:10:50.087Z,22.91
2023-06-23T07:11:50.250Z,22.90
2023-06-23T07:12:50.127Z,22.90
2023-06-23T07:13:50.082Z,22.91
2023-06-23T07:14:50.036Z,22.90
2023-06-23T07:15:50.094Z,22.90
2023-06-23T07:16:50.004Z,22.88
2023-06-23T07:17:50.010Z,22.90
2023-06-23T07:18:50.270Z,22.88
2023-06-23T07:19:49.964Z,22.90
2023-06-23T07:20:49.959Z,22.88
2023-06-23T07:21:49.988Z,22.88
2023-06-23T07:22:49.944Z,22.86
2023-06-23T07:23:49.926Z,22.88
2023-06-23T07:24:49.944Z,22.86
2023-06-23T07:25:49.933Z,22.86
2023-06-23T07:26:49.892Z,22.86
2023-06-23T07:27:49.897Z,22.86
2023-06-23T07:28:49.897Z,22.85
2023-06-23T07:29:49.852Z,22.85
2023-06-23T07:30:49.916Z,22.83
2023-06-23T07:31:49.907Z,22.85
2023-06-23T07:32:49.886Z,22.85
2023-06-23T07:33:49.804Z,22.83
2023-06-23T07:34:49.820Z,22.83
2023-06-23T07:35:49.841Z,22.82
2023-06-23T07:36:49.800Z,22.83
2023-06-23T07:37:49.771Z,22.82
2023-06-23T07:38:49.764Z,22.82
2023-06-23T07:39:49.850Z,22.82
2023-06-23T07:40:49.741Z,22.82
2023-06-23T07:41:50.354Z,22.82
2023-06-23T07:42:49.729Z,22.80
2023-06-23T07:43:49.728Z,22.80
2023-06-23T07:44:49.702Z,22.82
2023-06-23T07:45:49.708Z,22.80
2023-06-23T07:46:49.784Z,22.80
2023-06-23T07:47:49.668Z,22.80
2023-06-23T07:48:49.679Z,22.79
2023-06-23T07:49:49.684Z,22.79
2023-06-23T07:50:49.620Z,22.77
2023-06-23T07:51:49.614Z,22.79
2023-06-23T07:52:49.591Z,22.79
2023-06-23T07:54:02.299Z,22.76
2023-06-23T07:54:49.603Z,22.77
2023-06-23T07:55:49.557Z,22.76
2023-06-23T07:56:49.568Z,22.76
2023-06-23T07:57:49.599Z,22.75
2023-06-23T07:58:49.537Z,22.76
2023-06-23T07:59:49.542Z,22.76
2023-06-23T08:00:49.530Z,22.76
2023-06-23T08:01:49.498Z,22.75
2023-06-23T08:02:49.572Z,22.75
2023-06-23T08:03:49.645Z,22.75
2023-06-23T08:04:49.539Z,22.73
2023-06-23T08:05:49.470Z,22.75
2023-06-23T08:06:49.457Z,22.73
2023-06-23T08:07:49.463Z,22.73
2023-06-23T08:08:49.407Z,22.72
2023-06-23T08:09:49.420Z,22.73
2023-06-23T08:10:49.428Z,22.73
2023-06-23T08:11:49.397Z,22.73
2023-06-23T08:12:49.369Z,22.72
2023-06-23T08:13:49.398Z,22.70
2023-06-23T08:14:49.366Z,22.70
2023-06-23T08:15:49.344Z,22.72
2023-06-23T08:16:49.443Z,22.70
2023-06-23T08:17:51.485Z,22.72
2023-06-23T08:18:49.326Z,22.68
2023-06-23T08:19:49.296Z,22.70
2023-06-23T08:20:49.317Z,22.68
2023-06-23T08:21:49.292Z,22.68
2023-06-23T08:22:49.276Z,22.68
2023-06-23T08:23:49.260Z,22.70
2023-06-23T08:24:49.254Z,22.70
2023-06-23T08:25:49.228Z,22.72
2023-06-23T08:26:49.240Z,22.72
2023-06-23T08:27:49.252Z,22.73
2023-06-23T08:28:49.209Z,22.75
2023-06-23T08:29:49.204Z,22.75
2023-06-23T08:30:49.441Z,22.75
2023-06-23T08:31:49.309Z,22.77
2023-06-23T08:32:49.160Z,22.77
2023-06-23T08:33:49.150Z,22.76
2023-06-23T08:34:49.192Z,22.76
2023-06-23T08:35:49.162Z,22.75
2023-06-23T08:36:49.113Z,22.75
2023-06-23T08:37:49.104Z,22.73
2023-06-23T08:38:49.099Z,22.73
2023-06-23T08:39:49.084Z,22.72
2023-06-23T08:40:49.070Z,22.73
2023-06-23T08:41:49.067Z,22.72
2023-06-23T08:42:49.034Z,22.70
2023-06-23T08:43:49.035Z,22.70
2023-06-23T08:44:49.027Z,22.68
2023-06-23T08:45:49.003Z,22.67
2023-06-23T08:47:04.189Z,22.67
2023-06-23T08:47:49.022Z,22.65
2023-06-23T08:48:48.974Z,22.65
2023-06-23T08:49:48.958Z,22.64
2023-06-23T08:50:48.977Z,22.64
2023-06-23T08:51:48.956Z,22.65
2023-06-23T08:52:48.922Z,22.64
2023-06-23T08:53:48.920Z,22.64
2023-06-23T08:54:48.920Z,22.62
2023-06-23T08:55:48.905Z,22.61
2023-06-23T08:56:48.906Z,22.61
2023-06-23T08:57:51.980Z,22.61
2023-06-23T08:58:48.910Z,22.60
2023-06-23T08:59:48.877Z,22.60
2023-06-23T09:00:48.876Z,22.60
2023-06-23T09:01:48.889Z,22.60
2023-06-23T09:02:48.907Z,22.58
2023-06-23T09:03:48.739Z,22.60
2023-06-23T09:04:48.820Z,22.58
2023-06-23T09:05:48.810Z,22.58
2023-06-23T09:06:48.792Z,22.58
2023-06-23T09:07:48.749Z,22.57
2023-06-23T09:08:48.748Z,22.57
2023-06-23T09:09:48.797Z,22.57
2023-06-23T09:10:48.713Z,22.55
2023-06-23T09:11:48.654Z,22.57
2023-06-23T09:12:48.719Z,22.55
2023-06-23T09:13:48.648Z,22.57
2023-06-23T09:14:48.683Z,22.54
2023-06-23T09:15:59.936Z,22.54
2023-06-23T09:16:48.673Z,22.54
2023-06-23T09:17:49.378Z,22.54
2023-06-23T09:18:48.676Z,22.52
2023-06-23T09:19:48.605Z,22.54
2023-06-23T09:20:48.875Z,22.52
2023-06-23T09:21:48.595Z,22.52
2023-06-23T09:22:48.574Z,22.54
2023-06-23T09:23:48.530Z,22.52
2023-06-23T09:24:48.627Z,22.52
2023-06-23T09:25:48.589Z,22.51
2023-06-23T09:26:48.690Z,22.54
2023-06-23T09:27:48.477Z,22.52
2023-06-23T09:28:48.548Z,22.54
2023-06-23T09:29:48.512Z,22.55
2023-06-23T09:30:48.609Z,22.55
2023-06-23T09:31:48.481Z,22.55
2023-06-23T09:32:48.519Z,22.57
2023-06-23T09:33:48.446Z,22.55
2023-06-23T09:34:48.471Z,22.57
2023-06-23T09:35:48.388Z,22.57
2023-06-23T09:36:48.541Z,22.57
2023-06-23T09:37:48.439Z,22.58
2023-06-23T09:38:48.429Z,22.58
2023-06-23T09:39:48.421Z,22.57
2023-06-23T09:40:48.392Z,22.57
2023-06-23T09:41:53.009Z,22.55
2023-06-23T09:42:48.484Z,22.57
2023-06-23T09:43:48.357Z,22.55
2023-06-23T09:44:48.354Z,22.54
2023-06-23T09:45:48.281Z,22.55
2023-06-23T09:46:48.341Z,22.57
2023-06-23T09:47:48.273Z,22.57
2023-06-23T09:48:48.300Z,22.57
2023-06-23T09:49:48.269Z,22.55
2023-06-23T09:50:48.289Z,22.55
2023-06-23T09:51:48.309Z,22.55
2023-06-23T09:52:48.260Z,22.55
2023-06-23T09:53:48.246Z,22.52
2023-06-23T09:54:48.244Z,22.54
2023-06-23T09:55:48.219Z,22.52
2023-06-23T09:56:48.196Z,22.54
2023-06-23T09:57:48.179Z,22.52
2023-06-23T09:58:48.174Z,22.51
2023-06-23T09:59:48.186Z,22.51
2023-06-23T10:00:48.182Z,22.49
2023-06-23T10:01:48.111Z,22.51
2023-06-23T10:02:48.186Z,22.51
2023-06-23T10:03:48.209Z,22.49
2023-06-23T10:04:48.147Z,22.49
2023-06-23T10:05:48.105Z,22.52
2023-06-23T10:06:48.148Z,22.52
2023-06-23T10:07:48.092Z,22.52
2023-06-23T10:08:48.097Z,22.52
2023-06-23T10:09:48.055Z,22.54
2023-06-23T10:10:48.039Z,22.54
2023-06-23T10:11:48.005Z,22.54
2023-06-23T10:12:48.076Z,22.55
2023-06-23T10:13:48.024Z,22.54
2023-06-23T10:14:48.009Z,22.54
2023-06-23T10:15:47.982Z,22.54
2023-06-23T10:16:47.979Z,22.52
2023-06-23T10:17:48.077Z,22.51
2023-06-23T10:18:47.990Z,22.51
2023-06-23T10:19:47.986Z,22.49
2023-06-23T10:20:47.951Z,22.51
2023-06-23T10:21:47.945Z,22.51
2023-06-23T10:22:47.907Z,22.51
2023-06-23T10:23:47.916Z,22.49
2023-06-23T10:24:47.908Z,22.49
2023-06-23T10:25:47.917Z,22.49
2023-06-23T10:26:47.888Z,22.49
2023-06-23T10:27:47.862Z,22.49
2023-06-23T10:28:47.906Z,22.49
2023-06-23T10:29:47.837Z,22.49
2023-06-23T10:30:47.879Z,22.51
2023-06-23T10:31:48.439Z,22.49
2023-06-23T10:32:47.909Z,22.51
2023-06-23T10:33:47.797Z,22.54
2023-06-23T10:34:47.781Z,22.55
2023-06-23T10:35:47.785Z,22.54
2023-06-23T10:36:47.744Z,22.55
2023-06-23T10:37:47.732Z,22.57
2023-06-23T10:38:47.772Z,22.58
2023-06-23T10:39:47.756Z,22.60
2023-06-23T10:40:47.731Z,22.60
2023-06-23T10:41:47.702Z,22.61
2023-06-23T10:42:47.768Z,22.62
2023-06-23T10:43:47.704Z,22.61
2023-06-23T10:44:48.440Z,22.62
2023-06-23T10:45:47.653Z,22.64
2023-06-23T10:46:47.687Z,22.62
2023-06-23T10:47:47.644Z,22.64
2023-06-23T10:48:47.657Z,22.64
2023-06-23T10:49:47.612Z,22.62
2023-06-23T10:50:47.584Z,22.61
2023-06-23T10:51:47.545Z,22.62
2023-06-23T10:52:47.588Z,22.62
2023-06-23T10:53:47.577Z,22.61
2023-06-23T10:54:47.549Z,22.60
2023-06-23T10:56:02.332Z,22.60
2023-06-23T10:56:47.476Z,22.60
2023-06-23T10:57:47.522Z,22.60
2023-06-23T10:58:47.457Z,22.60
2023-06-23T10:59:47.489Z,22.58
2023-06-23T11:00:47.553Z,22.58
2023-06-23T11:01:47.572Z,22.57
2023-06-23T11:02:47.438Z,22.57
2023-06-23T11:03:47.459Z,22.58
2023-06-23T11:04:47.449Z,22.60
2023-06-23T11:05:47.444Z,22.60
2023-06-23T11:06:47.427Z,22.60
2023-06-23T11:07:47.417Z,22.61
2023-06-23T11:08:47.331Z,22.61
2023-06-23T11:09:47.392Z,22.62
2023-06-23T11:10:47.324Z,22.64
2023-06-23T11:11:47.380Z,22.64
2023-06-23T11:12:47.404Z,22.64
2023-06-23T11:13:47.326Z,22.65
2023-06-23T11:14:47.329Z,22.64
2023-06-23T11:15:47.320Z,22.67
2023-06-23T11:16:47.257Z,22.68
2023-06-23T11:17:47.417Z,22.67
2023-06-23T11:18:47.327Z,22.68
2023-06-23T11:19:47.260Z,22.67
2023-06-23T11:20:47.195Z,22.70
2023-06-23T11:21:47.254Z,22.70
2023-06-23T11:22:47.186Z,22.70
2023-06-23T11:23:47.264Z,22.72
2023-06-23T11:24:47.213Z,22.72
2023-06-23T11:25:47.211Z,22.73
2023-06-23T11:26:47.132Z,22.73
2023-06-23T11:27:47.190Z,22.73
2023-06-23T11:28:47.126Z,22.75
2023-06-23T11:29:47.182Z,22.76
2023-06-23T11:30:47.193Z,22.76
2023-06-23T11:31:47.880Z,22.76
2023-06-23T12:09:30.993Z,23.01
2023-06-23T12:10:31.888Z,23.02
2023-06-23T12:11:33.596Z,23.04
2023-06-23T12:12:31.855Z,23.05
2023-06-23T12:13:31.932Z,23.07
2023-06-23T12:14:31.954Z,23.07
2023-06-23T12:15:32.280Z,23.10
2023-06-23T12:16:31.900Z,23.12
2023-06-23T12:17:31.888Z,23.12
2023-06-23T12:18:31.859Z,23.16
2023-06-23T12:19:31.830Z,23.17
2023-06-23T12:20:32.961Z,23.19
2023-06-23T12:21:32.535Z,23.20
2023-06-23T12:22:31.795Z,23.23
2023-06-23T12:23:31.813Z,23.27
2023-06-23T12:24:31.776Z,23.28
2023-06-23T12:25:32.033Z,23.31
2023-06-23T12:26:31.774Z,23.36
2023-06-23T12:27:31.776Z,23.38
2023-06-23T12:28:31.696Z,23.39
2023-06-23T12:29:32.376Z,23.42
2023-06-23T12:30:31.866Z,23.42
2023-06-23T12:31:32.614Z,23.46
2023-06-23T12:32:31.690Z,23.47
2023-06-23T12:33:31.656Z,23.48
2023-06-23T12:34:31.655Z,23.50
2023-06-23T12:35:31.960Z,23.51
2023-06-23T12:36:31.633Z,23.53
2023-06-23T12:37:31.658Z,23.54
2023-06-23T12:38:31.629Z,23.55
2023-06-23T12:39:31.631Z,23.57
2023-06-23T12:40:31.593Z,23.57
2023-06-23T12:41:31.621Z,23.57
2023-06-23T12:42:31.522Z,23.57
2023-06-23T12:43:31.583Z,23.55
2023-06-23T12:44:31.576Z,23.57
2023-06-23T12:45:31.748Z,23.55
2023-06-23T12:46:31.568Z,23.55
2023-06-23T12:47:31.551Z,23.57
2023-06-23T12:48:31.447Z,23.57
2023-06-23T12:49:31.510Z,23.58
2023-06-23T12:50:37.914Z,23.60
2023-06-23T12:51:31.487Z,23.61
2023-06-23T12:52:31.474Z,23.61
2023-06-23T12:53:31.454Z,23.65
2023-06-23T12:54:31.438Z,23.66
2023-06-23T12:55:31.796Z,23.69
2023-06-23T12:56:31.704Z,23.70
2023-06-23T12:57:31.384Z,23.72
2023-06-23T12:58:31.334Z,23.75
2023-06-23T12:59:31.387Z,23.75
2023-06-23T13:00:31.368Z,23.75
2023-06-23T13:01:31.407Z,23.76
2023-06-23T13:02:32.891Z,23.75
2023-06-23T13:03:31.504Z,23.75
2023-06-23T13:04:31.395Z,23.76
2023-06-23T13:05:31.755Z,23.75
2023-06-23T13:06:31.370Z,23.75
2023-06-23T13:07:31.310Z,23.76
2023-06-23T13:08:31.329Z,23.75
2023-06-23T13:09:31.248Z,23.76
2023-06-23T13:10:31.261Z,23.75
2023-06-23T13:11:31.244Z,23.75
2023-06-23T13:12:31.236Z,23.73
2023-06-23T13:13:31.924Z,23.75
2023-06-23T13:14:31.246Z,23.73
2023-06-23T13:15:31.232Z,23.75
2023-06-23T13:16:31.178Z,23.76
2023-06-23T13:17:31.242Z,23.76
2023-06-23T13:18:31.122Z,23.79
2023-06-23T13:19:31.182Z,23.79
2023-06-23T13:20:31.500Z,23.84
2023-06-23T13:21:31.111Z,23.87
2023-06-23T13:22:31.853Z,23.88
2023-06-23T13:23:31.108Z,23.93
2023-06-23T13:24:31.804Z,23.95
2023-06-23T13:25:31.420Z,23.98
2023-06-23T13:26:31.127Z,24.02
2023-06-23T13:27:31.067Z,24.06
2023-06-23T13:28:31.009Z,24.09
2023-06-23T13:29:30.997Z,24.12